Time;durP1;ratioP1;P1;durP2;ratioP2;P2;SDS_P1;SDS_P2;PMS_P1;PMS_P2;Temp;Humidity;BMP_temperature;BMP_pressure;BME280_temperature;BME280_humidity;BME280_pressure;Samples;Min_cycle;Max_cycle;Signal;HPM_P1;HPM_P2
2023/10/23 00:02:10;;;;;;;5.78;3.40;;;6.70;99.90;;;;;;5056208;28;20058;-80
2023/10/23 00:04:37;;;;;;;6.20;3.38;;;6.70;99.90;;;;;;5031508;28;20046;-79
2023/10/23 00:07:04;;;;;;;6.85;3.60;;;7.20;99.90;;;;;;5047359;28;20038;-80
2023/10/23 00:09:30;;;;;;;7.22;3.88;;;7.00;99.90;;;;;;5064488;28;20034;-80
2023/10/23 00:11:57;;;;;;;6.18;3.78;;;6.60;99.90;;;;;;5052709;28;20507;-79
2023/10/23 00:14:24;;;;;;;9.02;4.05;;;6.70;99.90;;;;;;5067786;28;20044;-79
2023/10/23 00:16:50;;;;;;;9.55;4.43;;;7.10;99.90;;;;;;5051764;28;20041;-80
2023/10/23 00:19:17;;;;;;;13.45;4.88;;;6.70;99.90;;;;;;5070724;28;20452;-80
2023/10/23 00:21:44;;;;;;;10.45;4.28;;;6.50;99.90;;;;;;5061230;28;20128;-80
2023/10/23 00:24:11;;;;;;;10.10;4.55;;;6.50;99.90;;;;;;5048588;28;20042;-79
2023/10/23 00:26:37;;;;;;;7.82;4.68;;;7.10;99.90;;;;;;5041758;28;20175;-79
2023/10/23 00:29:04;;;;;;;10.10;4.25;;;6.50;99.90;;;;;;5040613;28;20407;-79
2023/10/23 00:31:31;;;;;;;9.23;4.78;;;6.50;99.90;;;;;;5050586;28;20033;-79
2023/10/23 00:33:57;;;;;;;8.27;4.53;;;6.40;99.90;;;;;;5052870;28;20100;-79
2023/10/23 00:36:24;;;;;;;6.97;4.40;;;6.40;99.90;;;;;;5039854;28;20065;-80
2023/10/23 00:38:51;;;;;;;8.73;4.57;;;6.40;99.90;;;;;;5066370;28;20044;-79
2023/10/23 00:41:18;;;;;;;6.57;3.78;;;7.00;99.90;;;;;;5038920;28;20084;-79
2023/10/23 00:43:45;;;;;;;8.02;4.20;;;6.70;99.90;;;;;;5049644;28;20037;-80
2023/10/23 00:46:19;;;;;;;6.95;3.97;;;6.90;99.90;;;;;;5050723;28;20045;-79
2023/10/23 00:48:47;;;;;;;7.35;4.20;;;6.70;99.90;;;;;;5034675;28;20117;-79
2023/10/23 00:51:15;;;;;;;6.38;3.80;;;6.40;99.90;;;;;;5060460;28;20446;-80
2023/10/23 00:53:43;;;;;;;7.22;4.03;;;6.40;99.90;;;;;;5030853;28;20038;-80
2023/10/23 00:56:11;;;;;;;6.85;3.97;;;6.40;99.90;;;;;;5045041;28;20064;-80
2023/10/23 00:58:40;;;;;;;6.18;3.75;;;6.30;99.90;;;;;;5042522;28;20145;-79
2023/10/23 01:01:12;;;;;;;7.25;3.60;;;6.30;99.90;;;;;;5048243;28;20041;-79
2023/10/23 01:03:42;;;;;;;8.02;3.78;;;6.40;99.90;;;;;;5040575;28;20045;-79
2023/10/23 01:06:12;;;;;;;6.30;3.92;;;6.30;99.90;;;;;;5044277;28;20041;-80
2023/10/23 01:08:39;;;;;;;6.95;4.18;;;6.30;99.90;;;;;;5050533;28;20048;-80
2023/10/23 01:11:06;;;;;;;7.38;4.22;;;6.30;99.90;;;;;;5033881;28;20041;-79
2023/10/23 01:13:32;;;;;;;8.20;4.10;;;6.70;99.90;;;;;;5053560;28;20044;-79
2023/10/23 01:15:59;;;;;;;7.85;4.47;;;6.70;99.90;;;;;;5053820;28;20047;-79
2023/10/23 01:18:26;;;;;;;7.13;4.15;;;6.30;99.90;;;;;;5069335;28;20044;-79
2023/10/23 01:20:52;;;;;;;7.32;4.15;;;6.20;99.90;;;;;;5037684;28;20037;-79
2023/10/23 01:23:25;;;;;;;7.53;3.70;;;6.20;99.90;;;;;;5043497;28;20131;-79
2023/10/23 01:25:52;;;;;;;10.80;3.95;;;6.20;99.90;;;;;;5070017;28;20086;-80
2023/10/23 01:28:19;;;;;;;6.40;4.10;;;6.20;99.90;;;;;;5053146;28;20057;-79
2023/10/23 01:30:46;;;;;;;9.88;3.92;;;6.20;99.90;;;;;;5056638;28;20514;-79
2023/10/23 01:33:13;;;;;;;7.28;3.60;;;6.20;99.90;;;;;;5053420;28;20047;-80
2023/10/23 01:35:39;;;;;;;7.35;4.25;;;6.80;99.90;;;;;;5053617;28;20028;-79
2023/10/23 01:38:06;;;;;;;6.78;3.97;;;6.10;99.90;;;;;;5053199;28;20392;-80
2023/10/23 01:40:33;;;;;;;7.60;3.78;;;6.10;99.90;;;;;;5045224;28;20038;-79
2023/10/23 01:42:59;;;;;;;9.93;4.15;;;6.20;99.90;;;;;;5038811;28;20400;-80
2023/10/23 01:45:26;;;;;;;7.13;4.45;;;6.60;99.90;;;;;;5053032;28;20125;-80
2023/10/23 01:47:53;;;;;;;6.63;4.10;;;6.10;99.90;;;;;;5040214;28;20116;-79
2023/10/23 01:50:20;;;;;;;7.85;4.32;;;6.10;99.90;;;;;;5082932;28;20040;-80
2023/10/23 01:52:46;;;;;;;7.32;4.50;;;6.10;99.90;;;;;;5053341;28;20048;-80
2023/10/23 01:55:13;;;;;;;7.32;4.38;;;6.10;99.90;;;;;;5053359;28;20045;-80
2023/10/23 01:57:40;;;;;;;8.32;4.10;;;6.80;99.90;;;;;;5051623;28;20037;-79
2023/10/23 02:00:09;;;;;;;7.70;4.10;;;6.10;99.90;;;;;;5041102;28;20087;-79
2023/10/23 02:02:36;;;;;;;7.05;4.32;;;6.00;99.90;;;;;;5041554;28;20132;-79
2023/10/23 02:05:04;;;;;;;7.47;4.55;;;6.10;99.90;;;;;;5037575;28;20048;-79
2023/10/23 02:07:30;;;;;;;7.88;4.35;;;6.00;99.90;;;;;;5037712;28;20033;-78
2023/10/23 02:09:57;;;;;;;12.23;4.10;;;6.00;99.90;;;;;;5051233;28;20068;-79
2023/10/23 02:12:24;;;;;;;7.45;4.45;;;6.00;99.90;;;;;;5040952;28;20540;-80
2023/10/23 02:14:52;;;;;;;9.40;4.22;;;6.10;99.90;;;;;;5046271;28;20037;-80
2023/10/23 02:17:20;;;;;;;6.97;4.50;;;6.40;99.90;;;;;;5052729;28;20049;-80
2023/10/23 02:19:47;;;;;;;8.40;4.30;;;6.00;99.90;;;;;;5049660;28;20116;-79
2023/10/23 02:22:15;;;;;;;7.32;4.68;;;6.00;99.90;;;;;;5035444;28;20124;-79
2023/10/23 02:24:42;;;;;;;6.75;4.60;;;6.00;99.90;;;;;;5037802;28;20087;-79
2023/10/23 02:27:08;;;;;;;6.30;4.07;;;6.00;99.90;;;;;;5052303;28;20033;-79
2023/10/23 02:29:35;;;;;;;8.52;4.55;;;6.00;99.90;;;;;;5061352;28;20037;-80
2023/10/23 02:32:02;;;;;;;6.18;3.78;;;6.00;99.90;;;;;;5057816;28;20041;-80
2023/10/23 02:34:28;;;;;;;8.52;4.80;;;6.00;99.90;;;;;;5042979;28;20120;-79
2023/10/23 02:36:55;;;;;;;7.15;4.55;;;6.60;99.90;;;;;;5054580;28;20041;-79
2023/10/23 02:39:22;;;;;;;7.93;4.88;;;6.00;99.90;;;;;;5060630;28;20411;-79
2023/10/23 02:41:49;;;;;;;7.82;4.63;;;6.00;99.90;;;;;;5053704;28;20042;-79
2023/10/23 02:44:16;;;;;;;7.47;5.22;;;6.80;99.90;;;;;;5053311;28;20411;-79
2023/10/23 02:46:42;;;;;;;9.85;4.93;;;6.00;99.90;;;;;;5053027;28;20124;-79
2023/10/23 02:49:09;;;;;;;7.68;5.00;;;5.90;99.90;;;;;;5056305;28;20123;-79
2023/10/23 02:51:38;;;;;;;6.93;4.40;;;6.00;99.90;;;;;;5052964;28;20041;-79
2023/10/23 02:54:04;;;;;;;8.90;5.00;;;6.50;99.90;;;;;;5055368;28;20042;-79
2023/10/23 02:56:32;;;;;;;9.02;4.90;;;5.90;99.90;;;;;;5052725;28;20037;-79
2023/10/23 02:58:59;;;;;;;7.35;5.22;;;5.90;99.90;;;;;;5052343;28;20494;-79
2023/10/23 03:01:26;;;;;;;9.20;4.78;;;5.90;99.90;;;;;;5025847;28;20053;-79
2023/10/23 03:03:53;;;;;;;8.00;4.80;;;5.90;99.90;;;;;;5048088;28;20052;-79
2023/10/23 03:06:20;;;;;;;9.10;4.80;;;5.90;99.90;;;;;;5042274;28;20512;-80
2023/10/23 03:08:49;;;;;;;9.05;5.10;;;5.90;99.90;;;;;;5037908;28;20487;-80
2023/10/23 03:11:16;;;;;;;7.15;4.70;;;5.90;99.90;;;;;;5045021;28;20454;-79
2023/10/23 03:13:43;;;;;;;8.07;4.93;;;6.30;99.90;;;;;;5052649;28;20041;-79
2023/10/23 03:16:15;;;;;;;10.23;4.60;;;5.90;99.90;;;;;;5048699;28;20114;-80
2023/10/23 03:18:41;;;;;;;8.25;4.63;;;5.80;99.90;;;;;;5028990;28;20120;-79
2023/10/23 03:21:08;;;;;;;8.98;4.90;;;6.20;99.90;;;;;;5057320;28;20128;-79
2023/10/23 03:23:35;;;;;;;8.45;4.85;;;5.90;99.90;;;;;;5054009;28;20103;-80
2023/10/23 03:26:02;;;;;;;7.70;4.70;;;5.80;99.90;;;;;;5033786;28;20042;-79
2023/10/23 03:28:32;;;;;;;9.48;4.60;;;6.30;99.90;;;;;;5040595;28;20048;-79
2023/10/23 03:31:01;;;;;;;9.82;5.10;;;6.50;99.90;;;;;;5052222;28;20038;-79
2023/10/23 03:33:27;;;;;;;9.10;5.05;;;6.40;99.90;;;;;;5048869;28;20037;-80
2023/10/23 03:35:54;;;;;;;10.18;4.75;;;5.80;99.90;;;;;;5032719;28;20171;-79
2023/10/23 03:38:21;;;;;;;8.15;5.13;;;6.20;99.90;;;;;;5055820;28;20124;-80
2023/10/23 03:41:00;;;;;;;7.40;4.70;;;5.80;99.90;;;;;;5067563;28;20124;-79
2023/10/23 03:43:26;;;;;;;8.50;4.90;;;5.80;99.90;;;;;;5062443;28;20128;-79
2023/10/23 03:45:53;;;;;;;8.43;5.13;;;5.70;99.90;;;;;;5052052;28;20184;-79
2023/10/23 03:48:20;;;;;;;8.13;4.88;;;5.70;99.90;;;;;;5045102;28;20060;-79
2023/10/23 03:50:50;;;;;;;10.10;5.22;;;5.80;99.90;;;;;;5057499;28;20116;-79
2023/10/23 03:53:19;;;;;;;8.65;5.22;;;6.30;99.90;;;;;;5029133;28;20034;-79
2023/10/23 03:55:45;;;;;;;7.97;4.80;;;5.70;99.90;;;;;;5050970;28;20116;-80
2023/10/23 03:58:12;;;;;;;9.45;4.95;;;5.70;99.90;;;;;;5041108;28;20144;-80
2023/10/23 04:00:38;;;;;;;12.18;5.00;;;5.70;99.90;;;;;;5031866;28;20412;-79
2023/10/23 04:03:05;;;;;;;10.27;5.47;;;5.90;99.90;;;;;;5051108;28;20050;-80
2023/10/23 04:05:32;;;;;;;7.82;5.25;;;6.30;99.90;;;;;;5046248;28;20119;-80
2023/10/23 04:07:58;;;;;;;8.07;4.90;;;5.70;99.90;;;;;;5039653;28;20046;-79
2023/10/23 04:10:25;;;;;;;8.82;4.78;;;5.70;99.90;;;;;;5025659;28;20408;-79
2023/10/23 04:12:52;;;;;;;8.73;5.53;;;5.70;99.90;;;;;;5051573;28;20044;-79
2023/10/23 04:15:19;;;;;;;9.13;5.10;;;5.60;99.90;;;;;;5031700;28;20041;-79
2023/10/23 04:17:45;;;;;;;8.00;5.13;;;5.90;99.90;;;;;;5064112;28;20042;-79
2023/10/23 04:20:12;;;;;;;8.77;5.68;;;5.60;99.90;;;;;;5034275;28;20056;-79
2023/10/23 04:22:39;;;;;;;8.57;5.28;;;6.30;99.90;;;;;;5051155;28;20039;-79
2023/10/23 04:25:05;;;;;;;9.48;5.38;;;5.60;99.90;;;;;;5051227;28;20128;-79
2023/10/23 04:27:32;;;;;;;10.02;5.32;;;5.60;99.90;;;;;;5045947;28;20525;-79
2023/10/23 04:29:59;;;;;;;7.70;5.22;;;5.60;99.90;;;;;;5050890;28;20145;-79
2023/10/23 04:32:27;;;;;;;10.80;5.40;;;5.60;99.90;;;;;;5026722;28;20120;-79
2023/10/23 04:34:54;;;;;;;11.55;5.95;;;5.60;99.90;;;;;;5043367;28;20041;-79
2023/10/23 04:37:21;;;;;;;9.20;5.55;;;5.60;99.90;;;;;;5054859;28;20133;-80
2023/10/23 04:39:47;;;;;;;8.75;4.85;;;5.50;99.90;;;;;;5044183;28;20041;-79
2023/10/23 04:42:14;;;;;;;9.20;5.18;;;5.60;99.90;;;;;;5030161;28;20052;-80
2023/10/23 04:44:41;;;;;;;12.25;5.63;;;5.50;99.90;;;;;;5037371;28;20062;-79
2023/10/23 04:47:07;;;;;;;12.35;5.80;;;5.90;99.90;;;;;;5051018;28;20041;-80
2023/10/23 04:49:34;;;;;;;9.20;5.40;;;5.40;99.90;;;;;;5059175;28;20029;-79
2023/10/23 04:52:00;;;;;;;8.77;5.30;;;5.40;99.90;;;;;;5043259;28;20045;-79
2023/10/23 04:54:27;;;;;;;7.95;5.30;;;6.20;99.90;;;;;;5028911;28;20046;-79
2023/10/23 04:56:54;;;;;;;8.82;5.00;;;5.40;99.90;;;;;;5050687;28;20487;-79
2023/10/23 04:59:20;;;;;;;7.85;5.07;;;5.30;99.90;;;;;;5030525;28;20141;-79
2023/10/23 05:01:49;;;;;;;7.85;5.00;;;6.10;99.90;;;;;;5058806;28;20050;-79
2023/10/23 05:04:15;;;;;;;7.18;4.88;;;5.30;99.90;;;;;;5042727;28;20680;-79
2023/10/23 05:06:42;;;;;;;7.22;4.80;;;5.30;99.90;;;;;;5037589;28;20092;-79
2023/10/23 05:09:10;;;;;;;8.90;5.00;;;5.20;99.90;;;;;;5050266;28;20044;-79
2023/10/23 05:11:37;;;;;;;11.18;4.82;;;5.20;99.90;;;;;;5046129;28;20048;-79
2023/10/23 05:14:03;;;;;;;8.32;5.18;;;5.90;99.90;;;;;;5041193;28;20120;-79
2023/10/23 05:16:30;;;;;;;9.38;5.15;;;5.20;99.90;;;;;;5040723;28;20041;-80
2023/10/23 05:18:57;;;;;;;10.45;5.10;;;5.20;99.90;;;;;;5037014;28;20484;-79
2023/10/23 05:21:24;;;;;;;9.25;5.78;;;5.30;99.90;;;;;;5036817;28;20042;-79
2023/10/23 05:23:51;;;;;;;8.15;5.10;;;5.20;99.90;;;;;;5044154;28;20041;-80
2023/10/23 05:26:18;;;;;;;9.07;5.50;;;5.10;99.90;;;;;;5035478;28;20532;-80
2023/10/23 05:28:45;;;;;;;8.93;5.10;;;5.80;99.90;;;;;;5032017;28;20034;-79
2023/10/23 05:31:12;;;;;;;10.43;5.68;;;5.10;99.90;;;;;;5066379;28;20049;-79
2023/10/23 05:33:38;;;;;;;7.68;5.10;;;5.70;99.90;;;;;;5049528;28;20041;-79
2023/10/23 05:36:06;;;;;;;10.50;5.40;;;4.80;99.90;;;;;;5050115;28;20380;-79
2023/10/23 05:38:33;;;;;;;13.05;5.85;;;5.10;99.90;;;;;;5034422;28;20071;-79
2023/10/23 05:41:00;;;;;;;10.93;5.30;;;5.00;99.90;;;;;;5060074;28;20041;-79
2023/10/23 05:43:28;;;;;;;8.65;5.85;;;5.00;99.90;;;;;;5030596;28;20045;-79
2023/10/23 05:45:56;;;;;;;7.35;5.18;;;5.00;99.90;;;;;;5055936;28;20096;-79
2023/10/23 05:48:23;;;;;;;8.48;5.72;;;5.70;99.90;;;;;;5036771;28;20045;-79
2023/10/23 05:51:04;;;;;;;13.05;6.05;;;5.00;99.90;;;;;;5038695;28;20065;-79
2023/10/23 05:53:32;;;;;;;8.88;5.75;;;5.00;99.90;;;;;;5044210;28;20043;-79
2023/10/23 05:56:06;;;;;;;9.27;5.93;;;5.60;99.90;;;;;;5043599;28;20119;-79
2023/10/23 05:58:36;;;;;;;10.77;6.22;;;5.00;99.90;;;;;;5043270;28;20045;-80
2023/10/23 06:01:06;;;;;;;10.82;6.25;;;5.00;99.90;;;;;;5046954;28;20136;-80
2023/10/23 06:03:33;;;;;;;10.40;5.82;;;5.00;99.90;;;;;;5037911;28;20038;-80
2023/10/23 06:06:00;;;;;;;9.60;6.22;;;5.00;99.90;;;;;;5046972;28;20044;-80
2023/10/23 06:08:27;;;;;;;12.23;6.18;;;5.00;99.90;;;;;;5048222;28;20037;-79
2023/10/23 06:10:57;;;;;;;8.63;6.05;;;5.60;99.90;;;;;;5042846;28;20037;-79
2023/10/23 06:13:24;;;;;;;10.90;6.38;;;5.00;99.90;;;;;;5038354;28;20038;-79
2023/10/23 06:15:51;;;;;;;11.07;6.07;;;4.90;99.90;;;;;;5036618;28;20041;-79
2023/10/23 06:18:18;;;;;;;9.88;5.63;;;4.90;99.90;;;;;;5033906;28;20440;-80
2023/10/23 06:20:44;;;;;;;8.23;5.80;;;4.90;99.90;;;;;;5029742;28;20096;-80
2023/10/23 06:23:11;;;;;;;10.65;5.97;;;4.90;99.90;;;;;;5042383;28;20045;-79
2023/10/23 06:25:38;;;;;;;10.68;6.38;;;4.90;99.90;;;;;;5029527;28;20774;-79
2023/10/23 06:28:04;;;;;;;9.75;6.47;;;5.30;99.90;;;;;;5051682;28;20041;-79
2023/10/23 06:30:31;;;;;;;9.02;5.90;;;4.80;99.90;;;;;;5046519;28;20041;-80
2023/10/23 06:32:57;;;;;;;9.32;5.90;;;5.20;99.90;;;;;;5035789;28;20121;-80
2023/10/23 06:35:24;;;;;;;12.75;7.25;;;5.30;99.90;;;;;;5046053;28;20041;-79
2023/10/23 06:37:51;;;;;;;9.38;5.88;;;4.80;99.90;;;;;;5049055;28;20042;-80
2023/10/23 06:40:18;;;;;;;10.35;6.22;;;4.80;99.90;;;;;;5034530;28;20049;-80
2023/10/23 06:42:44;;;;;;;10.70;5.85;;;4.90;99.90;;;;;;5031869;28;20095;-79
2023/10/23 06:45:11;;;;;;;12.02;7.00;;;4.80;99.90;;;;;;5037267;28;20038;-79
2023/10/23 06:47:37;;;;;;;11.05;6.13;;;4.80;99.90;;;;;;5036035;28;20045;-79
2023/10/23 06:50:05;;;;;;;9.60;6.30;;;4.80;99.90;;;;;;5044379;28;20071;-80
2023/10/23 06:52:32;;;;;;;10.48;6.40;;;4.80;99.90;;;;;;5043248;28;20039;-79
2023/10/23 06:54:59;;;;;;;15.38;6.30;;;4.80;99.90;;;;;;5043800;28;20041;-79
2023/10/23 06:57:26;;;;;;;9.45;6.13;;;4.80;99.90;;;;;;5029248;28;20502;-80
2023/10/23 06:59:54;;;;;;;10.05;6.38;;;4.80;99.90;;;;;;5048120;28;20099;-79
2023/10/23 07:02:21;;;;;;;10.20;6.25;;;5.00;99.90;;;;;;5043634;28;20041;-78
2023/10/23 07:04:48;;;;;;;10.02;6.60;;;5.50;99.90;;;;;;5046166;28;20042;-78
2023/10/23 07:07:14;;;;;;;14.85;6.50;;;4.90;99.90;;;;;;5034385;28;20045;-78
2023/10/23 07:09:41;;;;;;;11.45;7.10;;;4.90;99.90;;;;;;5037456;28;20038;-78
2023/10/23 07:12:08;;;;;;;10.57;6.38;;;5.50;99.90;;;;;;5046725;28;20041;-78
2023/10/23 07:14:35;;;;;;;12.13;7.80;;;5.70;99.90;;;;;;5044648;28;20406;-78
2023/10/23 07:17:02;;;;;;;11.05;6.70;;;5.80;99.90;;;;;;5053908;28;20519;-78
2023/10/23 07:19:29;;;;;;;12.88;8.00;;;5.00;99.90;;;;;;5051387;28;20041;-79
2023/10/23 07:21:56;;;;;;;13.73;8.80;;;4.60;99.90;;;;;;5055028;28;20052;-80
2023/10/23 07:24:22;;;;;;;17.65;9.02;;;5.90;99.90;;;;;;5047834;28;20104;-79
2023/10/23 07:26:49;;;;;;;18.90;9.80;;;5.20;99.90;;;;;;5045200;28;20069;-79
2023/10/23 07:29:16;;;;;;;15.27;9.27;;;5.20;99.90;;;;;;5046075;28;20532;-79
2023/10/23 07:31:43;;;;;;;18.00;9.48;;;6.20;99.90;;;;;;5060430;28;20029;-79
2023/10/23 07:34:10;;;;;;;13.75;8.55;;;5.30;99.90;;;;;;5061083;28;20513;-79
2023/10/23 07:36:37;;;;;;;13.05;8.65;;;6.00;99.90;;;;;;5040255;28;20077;-80
2023/10/23 07:39:04;;;;;;;14.68;8.30;;;5.80;99.90;;;;;;5042519;28;20391;-79
2023/10/23 07:41:30;;;;;;;13.07;8.35;;;5.90;99.90;;;;;;5040956;28;20111;-79
2023/10/23 07:43:57;;;;;;;13.88;8.00;;;5.60;99.90;;;;;;5038907;28;20041;-80
2023/10/23 07:46:24;;;;;;;12.45;8.32;;;5.70;99.90;;;;;;5038254;28;20075;-80
2023/10/23 07:48:51;;;;;;;16.15;9.70;;;5.80;99.90;;;;;;5038514;28;20060;-81
2023/10/23 07:51:17;;;;;;;12.60;8.73;;;5.80;99.90;;;;;;5019758;28;20038;-80
2023/10/23 07:53:44;;;;;;;13.75;8.60;;;6.50;99.90;;;;;;5038141;28;20049;-80
2023/10/23 07:56:14;;;;;;;14.25;9.40;;;6.00;99.90;;;;;;5039056;28;20033;-80
2023/10/23 07:58:42;;;;;;;13.25;8.55;;;6.80;99.90;;;;;;5043871;28;20093;-79
2023/10/23 08:01:11;;;;;;;13.43;8.57;;;6.10;99.90;;;;;;5051722;28;20043;-79
2023/10/23 08:03:38;;;;;;;12.95;9.60;;;6.20;99.90;;;;;;5056076;28;20140;-79
2023/10/23 08:06:08;;;;;;;15.00;9.38;;;6.50;99.90;;;;;;5070295;28;20052;-80
2023/10/23 08:08:36;;;;;;;13.75;8.85;;;6.70;99.90;;;;;;5039076;28;20083;-80
2023/10/23 08:11:04;;;;;;;16.55;9.73;;;6.40;99.90;;;;;;5043878;28;20531;-79
2023/10/23 08:13:32;;;;;;;16.05;10.30;;;6.50;99.90;;;;;;5048942;28;20510;-79
2023/10/23 08:15:59;;;;;;;15.20;9.40;;;7.10;99.90;;;;;;5033748;28;20062;-80
2023/10/23 08:18:26;;;;;;;15.98;9.88;;;6.70;99.90;;;;;;5031710;28;20080;-80
2023/10/23 08:20:56;;;;;;;15.52;9.82;;;6.80;99.90;;;;;;5032941;28;20475;-79
2023/10/23 08:23:22;;;;;;;14.45;10.05;;;7.10;99.90;;;;;;5031677;28;20061;-79
2023/10/23 08:25:49;;;;;;;18.08;10.20;;;6.90;99.90;;;;;;5031857;28;20491;-79
2023/10/23 08:28:16;;;;;;;15.63;9.85;;;7.10;99.90;;;;;;5031485;28;20095;-79
2023/10/23 08:30:42;;;;;;;16.10;9.40;;;7.20;99.90;;;;;;5032046;28;20044;-80
2023/10/23 08:33:09;;;;;;;16.63;9.65;;;7.30;99.90;;;;;;5066639;28;20048;-80
2023/10/23 08:35:36;;;;;;;18.75;10.10;;;8.10;99.90;;;;;;5051312;28;20033;-80
2023/10/23 08:38:03;;;;;;;18.75;10.50;;;8.20;99.90;;;;;;5053579;28;20107;-80
2023/10/23 08:40:30;;;;;;;21.42;10.52;;;8.50;99.90;;;;;;5054331;28;20437;-80
2023/10/23 08:42:56;;;;;;;18.38;10.80;;;7.80;99.90;;;;;;5049685;28;20037;-79
2023/10/23 08:45:23;;;;;;;15.00;9.95;;;8.10;99.90;;;;;;5057971;28;20047;-80
2023/10/23 08:47:50;;;;;;;16.55;10.68;;;8.00;99.90;;;;;;5034807;28;20037;-80
2023/10/23 08:50:16;;;;;;;18.58;10.65;;;8.10;99.90;;;;;;5041948;28;20037;-79
2023/10/23 08:52:47;;;;;;;15.77;9.70;;;8.20;99.90;;;;;;5051326;28;20060;-80
2023/10/23 08:55:14;;;;;;;15.57;9.88;;;9.20;99.90;;;;;;5045565;28;20124;-79
2023/10/23 08:57:54;;;;;;;17.02;10.52;;;8.40;99.90;;;;;;5060671;28;20047;-79
2023/10/23 09:00:24;;;;;;;14.88;9.85;;;8.60;99.90;;;;;;5011889;28;20100;-80
2023/10/23 09:02:52;;;;;;;15.18;9.60;;;8.70;99.90;;;;;;5048809;28;20045;-79
2023/10/23 09:05:19;;;;;;;15.75;9.88;;;9.10;99.90;;;;;;5045133;28;20041;-79
2023/10/23 09:07:46;;;;;;;13.52;9.38;;;9.20;99.90;;;;;;5038834;28;20036;-79
2023/10/23 09:10:12;;;;;;;14.82;9.60;;;9.50;99.90;;;;;;5055221;28;20049;-79
2023/10/23 09:12:40;;;;;;;14.68;9.57;;;9.60;99.90;;;;;;5038120;28;20544;-79
2023/10/23 09:15:26;;;;;;;17.83;10.25;;;9.20;99.90;;;;;;5056954;28;20047;-80
2023/10/23 09:17:53;;;;;;;14.93;9.50;;;9.30;99.90;;;;;;5065617;28;20061;-78
2023/10/23 09:20:24;;;;;;;13.32;8.68;;;9.40;99.90;;;;;;5043564;28;20045;-79
2023/10/23 09:22:52;;;;;;;15.02;9.18;;;9.50;99.90;;;;;;5051504;28;20049;-79
2023/10/23 09:25:21;;;;;;;12.77;8.95;;;9.70;99.90;;;;;;5036502;28;20048;-80
2023/10/23 09:27:49;;;;;;;17.48;9.32;;;9.70;99.90;;;;;;5030568;28;20034;-80
2023/10/23 09:30:21;;;;;;;15.85;9.55;;;10.00;99.90;;;;;;5049752;28;20042;-80
2023/10/23 09:32:51;;;;;;;14.38;9.85;;;10.00;99.90;;;;;;5046302;28;20029;-80
2023/10/23 09:35:18;;;;;;;13.18;8.82;;;10.00;99.90;;;;;;5049940;28;20041;-80
2023/10/23 09:37:45;;;;;;;14.25;9.02;;;10.10;99.90;;;;;;5049228;28;20415;-79
2023/10/23 09:40:12;;;;;;;12.85;8.43;;;10.00;99.90;;;;;;5060901;28;20043;-80
2023/10/23 09:42:40;;;;;;;15.50;8.15;;;10.30;99.90;;;;;;5057565;28;20037;-80
2023/10/23 09:45:08;;;;;;;15.57;7.78;;;10.40;99.90;;;;;;5056763;28;20123;-80
2023/10/23 09:47:35;;;;;;;13.27;7.80;;;10.50;99.90;;;;;;5066396;28;20037;-80
2023/10/23 09:50:03;;;;;;;12.82;7.90;;;10.60;99.90;;;;;;5046853;28;20087;-79
2023/10/23 09:52:32;;;;;;;15.18;8.23;;;10.60;99.90;;;;;;5053798;28;20814;-79
2023/10/23 09:55:04;;;;;;;13.73;8.45;;;11.20;99.90;;;;;;5052878;28;20059;-80
2023/10/23 09:57:39;;;;;;;11.13;7.88;;;10.80;99.90;;;;;;5048480;28;20111;-80
2023/10/23 10:00:14;;;;;;;15.10;7.93;;;11.00;99.90;;;;;;5038903;28;20473;-80
2023/10/23 10:02:47;;;;;;;13.52;7.78;;;11.10;99.90;;;;;;5040437;28;20076;-80
2023/10/23 10:05:37;;;;;;;17.00;7.97;;;11.10;99.90;;;;;;5020658;28;20068;-80
2023/10/23 10:08:07;;;;;;;12.43;6.88;;;11.20;99.90;;;;;;5043391;28;20057;-80
2023/10/23 10:10:38;;;;;;;10.88;7.40;;;11.60;99.90;;;;;;5033022;28;20119;-81
2023/10/23 10:13:06;;;;;;;12.27;7.30;;;11.30;99.90;;;;;;5035668;28;20170;-80
2023/10/23 10:15:33;;;;;;;10.98;6.47;;;11.40;99.90;;;;;;5043247;28;20511;-80
2023/10/23 10:18:00;;;;;;;10.95;6.75;;;12.10;99.90;;;;;;5048566;28;20060;-80
2023/10/23 10:20:28;;;;;;;12.25;6.47;;;11.40;99.90;;;;;;5042986;28;20041;-80
2023/10/23 10:23:12;;;;;;;11.48;7.68;;;11.50;99.90;;;;;;5049812;28;20523;-80
2023/10/23 10:25:39;;;;;;;9.48;6.78;;;11.50;99.90;;;;;;5041858;28;20044;-80
2023/10/23 10:28:07;;;;;;;13.63;7.70;;;11.60;99.90;;;;;;5060443;28;20406;-80
2023/10/23 10:30:49;;;;;;;13.38;7.30;;;11.70;99.90;;;;;;5037361;28;20458;-80
2023/10/23 10:33:29;;;;;;;12.60;8.35;;;11.70;99.90;;;;;;5039539;28;20034;-80
2023/10/23 10:36:05;;;;;;;12.23;8.18;;;11.80;99.90;;;;;;5038299;28;20387;-80
2023/10/23 10:38:35;;;;;;;14.00;8.18;;;11.80;99.90;;;;;;5036954;28;20043;-81
2023/10/23 10:41:16;;;;;;;13.35;8.25;;;11.90;99.90;;;;;;5046291;28;20439;-80
2023/10/23 10:43:43;;;;;;;12.50;8.50;;;11.80;99.90;;;;;;5058899;28;20048;-80
2023/10/23 10:46:25;;;;;;;14.32;8.85;;;11.90;99.90;;;;;;5046654;28;20137;-80
2023/10/23 10:48:54;;;;;;;12.48;8.48;;;11.90;99.90;;;;;;5049116;28;20080;-80
2023/10/23 10:51:23;;;;;;;13.50;8.77;;;11.90;99.90;;;;;;5046245;28;20083;-80
2023/10/23 10:54:07;;;;;;;14.88;8.52;;;11.80;99.90;;;;;;5052393;28;20042;-81
2023/10/23 10:56:34;;;;;;;12.32;8.38;;;11.90;99.90;;;;;;5047896;28;20055;-78
2023/10/23 10:59:04;;;;;;;12.57;8.43;;;11.90;99.90;;;;;;5048708;28;20061;-78
2023/10/23 11:01:33;;;;;;;14.48;9.43;;;11.90;99.90;;;;;;5027710;28;20420;-80
2023/10/23 11:04:00;;;;;;;14.20;8.90;;;12.00;99.90;;;;;;5040927;28;20045;-79
2023/10/23 11:06:27;;;;;;;16.17;9.18;;;12.00;99.90;;;;;;5036566;28;20042;-79
2023/10/23 11:08:54;;;;;;;13.23;9.32;;;12.20;99.90;;;;;;5055866;28;20403;-79
2023/10/23 11:11:21;;;;;;;18.67;8.88;;;12.00;99.90;;;;;;5033184;28;20042;-79
2023/10/23 11:13:48;;;;;;;14.40;8.93;;;12.00;99.90;;;;;;5032291;28;20519;-79
2023/10/23 11:16:15;;;;;;;13.50;9.30;;;12.00;99.90;;;;;;5034320;28;20088;-78
2023/10/23 11:18:42;;;;;;;19.92;9.60;;;11.90;99.90;;;;;;5040310;28;20037;-79
2023/10/23 11:21:09;;;;;;;13.85;9.57;;;12.30;99.90;;;;;;5056314;28;20041;-79
2023/10/23 11:23:35;;;;;;;15.23;8.93;;;12.40;99.90;;;;;;5038918;28;20841;-78
2023/10/23 11:26:03;;;;;;;13.13;8.52;;;11.90;99.90;;;;;;5042685;28;20221;-79
2023/10/23 11:28:30;;;;;;;14.27;8.88;;;11.90;99.90;;;;;;5030130;28;20048;-78
2023/10/23 11:30:59;;;;;;;13.52;8.60;;;11.90;99.90;;;;;;5057208;28;20484;-79
2023/10/23 11:33:26;;;;;;;14.63;8.45;;;11.90;99.90;;;;;;5032129;28;20053;-79
2023/10/23 11:35:53;;;;;;;12.18;8.18;;;11.90;99.90;;;;;;5050233;28;20034;-78
2023/10/23 11:38:21;;;;;;;12.57;8.02;;;12.00;99.90;;;;;;5044711;28;20495;-78
2023/10/23 11:40:48;;;;;;;13.65;8.32;;;12.00;99.90;;;;;;5038957;28;20038;-79
2023/10/23 11:43:16;;;;;;;15.00;8.35;;;12.00;99.90;;;;;;5060499;28;20041;-78
2023/10/23 11:45:44;;;;;;;12.20;7.88;;;12.10;99.90;;;;;;5048336;28;20080;-78
2023/10/23 11:48:14;;;;;;;13.55;8.23;;;12.10;99.90;;;;;;5058977;28;20049;-79
2023/10/23 11:50:42;;;;;;;11.75;7.47;;;12.10;99.90;;;;;;5064127;28;20533;-79
2023/10/23 11:53:09;;;;;;;11.15;7.03;;;12.10;99.90;;;;;;5034822;28;20117;-79
2023/10/23 11:55:37;;;;;;;11.07;7.25;;;12.20;99.90;;;;;;5039218;28;20092;-80
2023/10/23 11:58:04;;;;;;;10.75;7.15;;;12.20;99.90;;;;;;5048437;28;20081;-79
2023/10/23 12:00:33;;;;;;;11.13;7.38;;;12.10;99.90;;;;;;5044180;28;20518;-79
2023/10/23 12:03:00;;;;;;;12.50;7.60;;;12.10;99.90;;;;;;5041177;28;20111;-79
2023/10/23 12:05:27;;;;;;;12.40;7.97;;;12.00;99.90;;;;;;5059596;28;20045;-78
2023/10/23 12:07:54;;;;;;;12.73;7.78;;;12.00;99.90;;;;;;5052560;28;20076;-80
2023/10/23 12:10:24;;;;;;;11.77;8.25;;;12.00;99.90;;;;;;5047845;28;20041;-79
2023/10/23 12:12:52;;;;;;;10.65;7.78;;;12.00;99.90;;;;;;5027451;28;20112;-79
2023/10/23 12:15:20;;;;;;;10.48;7.85;;;12.00;99.90;;;;;;5048094;28;20557;-79
2023/10/23 12:17:46;;;;;;;10.88;7.50;;;12.00;99.90;;;;;;5033046;28;20038;-79
2023/10/23 12:20:14;;;;;;;12.43;8.13;;;12.10;99.90;;;;;;5050717;28;20806;-79
2023/10/23 12:22:43;;;;;;;11.55;7.10;;;12.20;99.90;;;;;;5051422;28;20041;-79
2023/10/23 12:25:11;;;;;;;11.65;7.22;;;11.90;99.90;;;;;;5066459;28;20055;-79
2023/10/23 12:27:39;;;;;;;13.32;8.05;;;12.00;99.90;;;;;;5051789;28;20034;-79
2023/10/23 12:30:08;;;;;;;13.85;7.47;;;11.70;99.90;;;;;;5052707;28;20128;-79
2023/10/23 12:32:35;;;;;;;12.52;7.55;;;11.70;99.90;;;;;;5038365;28;20128;-78
2023/10/23 12:35:03;;;;;;;12.77;7.40;;;11.70;99.90;;;;;;5053506;28;20077;-79
2023/10/23 12:37:31;;;;;;;11.30;7.55;;;11.60;99.90;;;;;;5047529;28;20037;-79
2023/10/23 12:40:00;;;;;;;11.27;6.95;;;11.60;99.90;;;;;;5061694;28;20041;-79
2023/10/23 12:42:29;;;;;;;12.85;7.75;;;11.70;99.90;;;;;;5044518;28;20037;-79
2023/10/23 12:44:56;;;;;;;14.13;8.90;;;11.60;99.90;;;;;;5042317;28;20038;-78
2023/10/23 12:47:26;;;;;;;13.10;7.82;;;11.50;99.90;;;;;;5054521;28;20095;-79
2023/10/23 12:49:53;;;;;;;15.25;9.10;;;11.60;99.90;;;;;;5050174;28;20044;-79
2023/10/23 12:52:19;;;;;;;11.93;7.85;;;11.60;99.90;;;;;;5051869;28;20045;-79